createdAt,value
2018-07-30T00:01:58.085Z,11.93
2018-07-30T00:04:31.804Z,11.43
2018-07-30T00:07:06.138Z,12.77
2018-07-30T00:09:40.843Z,11.07
2018-07-30T00:12:15.648Z,11.87
2018-07-30T00:14:49.377Z,12.00
2018-07-30T00:17:24.210Z,11.67
2018-07-30T00:19:59.063Z,13.57
2018-07-30T00:22:32.954Z,12.27
2018-07-30T00:25:07.655Z,11.33
2018-07-30T00:27:42.473Z,12.27
2018-07-30T00:30:17.197Z,13.30
2018-07-30T00:32:51.270Z,13.17
2018-07-30T00:35:25.328Z,13.40
2018-07-30T00:38:00.159Z,12.10
2018-07-30T00:40:34.963Z,12.63
2018-07-30T00:43:09.696Z,11.60
2018-07-30T00:45:44.696Z,12.67
2018-07-30T00:48:19.422Z,12.10
2018-07-30T00:53:46.885Z,11.50
2018-07-30T00:56:21.580Z,12.70
2018-07-30T00:58:56.413Z,12.13
2018-07-30T01:01:31.113Z,12.13
2018-07-30T01:04:04.808Z,11.57
2018-07-30T01:06:39.501Z,12.27
2018-07-30T01:09:14.598Z,14.23
2018-07-30T01:11:49.429Z,12.00
2018-07-30T01:14:23.268Z,12.70
2018-07-30T01:17:00.125Z,11.73
2018-07-30T01:19:34.082Z,10.63
2018-07-30T01:22:10.096Z,11.97
2018-07-30T01:24:45.130Z,12.40
2018-07-30T01:27:19.758Z,12.70
2018-07-30T01:29:54.520Z,12.20
2018-07-30T01:32:29.430Z,12.80
2018-07-30T01:35:04.322Z,11.97
2018-07-30T01:37:38.329Z,12.27
2018-07-30T01:40:12.914Z,11.80
2018-07-30T01:42:46.859Z,11.70
2018-07-30T01:45:21.471Z,11.80
2018-07-30T01:47:56.375Z,10.80
2018-07-30T01:50:31.174Z,11.90
2018-07-30T01:53:06.100Z,11.83
2018-07-30T01:55:40.789Z,12.03
2018-07-30T01:58:14.657Z,11.57
2018-07-30T02:00:49.398Z,10.37
2018-07-30T02:03:23.412Z,11.17
2018-07-30T02:05:58.184Z,10.87
2018-07-30T02:08:33.116Z,10.30
2018-07-30T02:11:07.255Z,10.07
2018-07-30T02:13:42.111Z,10.47
2018-07-30T02:16:17.013Z,10.30
2018-07-30T02:18:51.670Z,11.03
2018-07-30T02:21:26.384Z,11.20
2018-07-30T02:24:00.861Z,10.17
2018-07-30T02:26:34.731Z,10.43
2018-07-30T02:29:09.535Z,10.83
2018-07-30T02:31:43.257Z,9.20
2018-07-30T02:34:17.650Z,11.43
2018-07-30T02:36:52.550Z,11.00
2018-07-30T02:39:27.482Z,9.77
2018-07-30T02:42:01.417Z,11.30
2018-07-30T02:44:36.157Z,9.80
2018-07-30T02:47:10.964Z,10.20
2018-07-30T02:49:45.617Z,10.37
2018-07-30T02:52:20.516Z,10.70
2018-07-30T02:54:56.297Z,10.10
2018-07-30T02:57:31.070Z,9.90
2018-07-30T03:00:05.034Z,10.27
2018-07-30T03:02:39.752Z,11.20
2018-07-30T03:05:16.219Z,11.23
2018-07-30T03:07:50.866Z,10.53
2018-07-30T03:10:25.622Z,10.27
2018-07-30T03:12:59.539Z,11.10
2018-07-30T03:15:34.331Z,10.20
2018-07-30T03:18:09.153Z,11.10
2018-07-30T03:20:44.144Z,11.30
2018-07-30T03:23:18.611Z,11.00
2018-07-30T03:25:54.348Z,10.67
2018-07-30T03:28:28.229Z,10.80
2018-07-30T03:31:04.130Z,10.37
2018-07-30T03:33:38.940Z,10.70
2018-07-30T03:36:13.923Z,10.93
2018-07-30T03:38:48.590Z,10.47
2018-07-30T03:41:22.473Z,10.67
2018-07-30T03:43:57.011Z,10.10
2018-07-30T03:46:32.018Z,11.43
2018-07-30T03:49:06.672Z,11.00
2018-07-30T03:51:41.367Z,11.03
2018-07-30T03:54:15.233Z,10.70
2018-07-30T03:56:49.934Z,11.07
2018-07-30T03:59:24.763Z,10.93
2018-07-30T04:01:59.552Z,12.03
2018-07-30T04:04:34.234Z,10.90
2018-07-30T04:07:08.315Z,10.70
2018-07-30T04:09:43.209Z,11.40
2018-07-30T04:12:17.778Z,11.03
2018-07-30T04:14:52.926Z,10.00
2018-07-30T04:17:26.694Z,11.97
2018-07-30T04:20:00.713Z,11.20
2018-07-30T04:22:34.601Z,12.00
2018-07-30T04:25:08.555Z,11.60
2018-07-30T04:27:44.812Z,11.00
2018-07-30T04:30:18.912Z,13.17
2018-07-30T04:32:53.971Z,11.23
2018-07-30T04:35:28.819Z,11.70
2018-07-30T04:38:03.473Z,10.80
2018-07-30T04:40:38.200Z,11.27
2018-07-30T04:43:12.107Z,12.07
2018-07-30T04:45:47.075Z,11.30
2018-07-30T04:48:21.637Z,12.23
2018-07-30T04:50:56.419Z,11.53
2018-07-30T04:53:33.277Z,11.50
2018-07-30T04:56:07.941Z,9.90
2018-07-30T04:58:42.669Z,10.33
2018-07-30T05:01:18.518Z,10.80
2018-07-30T05:03:53.385Z,10.57
2018-07-30T05:06:29.213Z,11.20
2018-07-30T05:09:03.968Z,10.60
2018-07-30T05:11:38.932Z,11.30
2018-07-30T05:14:13.651Z,10.70
2018-07-30T05:16:48.405Z,11.27
2018-07-30T05:22:11.849Z,9.80
2018-07-30T05:24:46.380Z,9.67
2018-07-30T05:27:21.586Z,9.77
2018-07-30T05:29:56.465Z,9.80
2018-07-30T05:32:30.393Z,9.33
2018-07-30T05:35:04.729Z,8.67
2018-07-30T05:37:40.446Z,10.20
2018-07-30T05:40:15.347Z,11.10
2018-07-30T05:42:49.369Z,9.53
2018-07-30T05:45:26.326Z,10.27
2018-07-30T05:48:00.931Z,10.80
2018-07-30T05:50:36.841Z,10.20
2018-07-30T05:53:11.406Z,10.70
2018-07-30T05:55:46.232Z,10.70
2018-07-30T05:58:20.220Z,10.10
2018-07-30T06:00:54.901Z,9.80
2018-07-30T06:03:29.687Z,8.90
2018-07-30T06:06:04.414Z,8.80
2018-07-30T06:08:38.607Z,8.87
2018-07-30T06:11:13.476Z,8.83
2018-07-30T06:13:48.091Z,8.40
2018-07-30T06:16:23.016Z,9.87
2018-07-30T06:18:57.708Z,8.90
2018-07-30T06:21:32.618Z,8.50
2018-07-30T06:24:07.263Z,9.10
2018-07-30T06:26:42.057Z,8.30
2018-07-30T06:29:16.827Z,8.30
2018-07-30T06:31:51.787Z,8.90
2018-07-30T06:34:27.589Z,8.83
2018-07-30T06:37:01.670Z,8.40
2018-07-30T06:39:36.429Z,8.27
2018-07-30T06:42:11.370Z,8.10
2018-07-30T06:44:46.126Z,7.70
2018-07-30T06:47:20.921Z,9.13
2018-07-30T06:49:55.781Z,7.57
2018-07-30T06:52:31.451Z,6.97
2018-07-30T06:55:06.167Z,7.50
2018-07-30T06:57:40.963Z,7.73
2018-07-30T07:00:15.816Z,7.57
2018-07-30T07:02:50.600Z,7.40
2018-07-30T07:05:25.621Z,8.27
2018-07-30T07:07:59.931Z,8.23
2018-07-30T07:10:34.707Z,6.97
2018-07-30T07:13:09.649Z,7.27
2018-07-30T07:15:44.541Z,7.17
2018-07-30T07:18:19.104Z,6.53
2018-07-30T07:20:53.924Z,6.53
2018-07-30T07:23:29.625Z,7.10
2018-07-30T07:26:04.300Z,7.10
2018-07-30T07:28:38.312Z,7.27
2018-07-30T07:31:14.007Z,7.87
2018-07-30T07:33:48.778Z,7.73
2018-07-30T07:36:27.578Z,7.10
2018-07-30T07:39:02.807Z,7.07
2018-07-30T07:41:37.196Z,6.27
2018-07-30T07:44:11.958Z,6.57
2018-07-30T07:46:45.639Z,6.70
2018-07-30T07:49:20.482Z,8.03
2018-07-30T07:51:55.312Z,6.70
2018-07-30T07:54:29.035Z,8.20
2018-07-30T07:57:06.169Z,7.40
2018-07-30T07:59:40.805Z,7.00
2018-07-30T08:02:15.651Z,6.70
2018-07-30T08:04:50.132Z,6.80
2018-07-30T08:07:24.884Z,7.03
2018-07-30T08:09:59.831Z,7.10
2018-07-30T08:12:34.651Z,6.07
2018-07-30T08:15:09.357Z,6.13
2018-07-30T08:17:44.193Z,5.87
2018-07-30T08:20:18.966Z,5.40
2018-07-30T08:22:53.758Z,5.20
2018-07-30T08:25:28.833Z,4.83
2018-07-30T08:28:03.618Z,5.80
2018-07-30T08:30:38.701Z,5.30
2018-07-30T08:33:14.183Z,5.10
2018-07-30T08:35:48.146Z,4.43
2018-07-30T08:38:22.874Z,4.43
2018-07-30T08:40:57.813Z,4.80
2018-07-30T08:43:26.799Z,5.10
2018-07-30T08:45:55.595Z,4.80
2018-07-30T08:48:24.371Z,4.67
2018-07-30T08:50:53.371Z,5.33
2018-07-30T08:53:22.145Z,5.30
2018-07-30T08:55:51.152Z,5.10
2018-07-30T08:58:20.228Z,5.20
2018-07-30T09:00:49.110Z,4.67
2018-07-30T09:03:17.917Z,5.07
2018-07-30T09:05:49.025Z,4.50
2018-07-30T09:19:49.856Z,6.10
2018-07-30T09:22:18.622Z,5.70
2018-07-30T09:24:47.486Z,5.33
2018-07-30T09:27:16.399Z,5.57
2018-07-30T09:29:46.283Z,5.37
2018-07-30T09:32:15.222Z,5.80
2018-07-30T09:34:44.268Z,6.70
2018-07-30T09:40:00.075Z,6.87
2018-07-30T09:42:28.550Z,6.40
2018-07-30T09:44:57.041Z,6.30
2018-07-30T09:47:26.127Z,6.03
2018-07-30T09:49:56.247Z,6.30
2018-07-30T09:55:18.480Z,6.77
2018-07-30T10:36:42.122Z,7.10
2018-07-30T10:39:12.180Z,7.30
2018-07-30T10:41:41.077Z,5.87
2018-07-30T10:44:09.987Z,6.37
2018-07-30T10:46:38.800Z,6.20
2018-07-30T10:49:07.862Z,5.87
2018-07-30T10:51:36.893Z,5.07
2018-07-30T10:54:05.899Z,5.17
2018-07-30T10:56:34.869Z,5.63
2018-07-30T10:59:03.838Z,5.90
2018-07-30T11:01:32.859Z,5.23
2018-07-30T11:04:01.937Z,5.10
2018-07-30T11:06:30.966Z,5.50
2018-07-30T11:08:59.839Z,5.40
2018-07-30T11:11:28.900Z,6.30
2018-07-30T11:13:57.834Z,5.20
2018-07-30T11:16:26.863Z,5.30
2018-07-30T11:18:55.661Z,5.17
2018-07-30T11:21:24.606Z,5.70
2018-07-30T11:23:53.612Z,6.23
2018-07-30T11:26:22.549Z,5.60
2018-07-30T11:28:51.592Z,5.67
2018-07-30T11:31:20.542Z,6.43
2018-07-30T11:33:49.661Z,5.97
2018-07-30T11:36:19.791Z,7.13
2018-07-30T11:38:48.745Z,6.27
2018-07-30T11:41:17.779Z,7.10
2018-07-30T11:43:46.845Z,6.00
2018-07-30T11:46:16.963Z,7.17
2018-07-30T11:48:46.025Z,6.47
2018-07-30T11:51:14.913Z,6.30
2018-07-30T11:53:43.942Z,7.10
2018-07-30T11:56:12.866Z,6.43
2018-07-30T11:58:41.830Z,6.63
2018-07-30T12:01:10.913Z,6.30
2018-07-30T12:03:39.741Z,6.47
2018-07-30T12:06:08.824Z,6.87
2018-07-30T12:08:37.678Z,6.30
2018-07-30T12:11:09.624Z,6.23
2018-07-30T12:13:38.593Z,6.33
2018-07-30T12:16:07.522Z,7.40
2018-07-30T12:18:36.544Z,7.10
2018-07-30T12:21:05.401Z,6.20
2018-07-30T12:23:34.383Z,6.60
2018-07-30T12:26:03.410Z,7.60
2018-07-30T12:28:32.331Z,7.23
2018-07-30T12:31:01.085Z,7.20
2018-07-30T12:33:30.156Z,7.23
2018-07-30T12:35:59.078Z,6.97
2018-07-30T12:38:28.347Z,6.53
2018-07-30T12:40:57.382Z,6.83
2018-07-30T12:43:26.356Z,6.97
2018-07-30T12:45:55.422Z,6.80
2018-07-30T12:48:24.412Z,7.50
2018-07-30T12:50:53.421Z,7.10
2018-07-30T12:53:22.324Z,6.87
2018-07-30T12:55:51.270Z,7.10
2018-07-30T12:58:20.255Z,7.00
2018-07-30T13:00:49.191Z,7.50
2018-07-30T13:03:18.328Z,7.13
2018-07-30T13:05:47.272Z,7.93
2018-07-30T13:08:16.334Z,7.20
2018-07-30T13:10:45.328Z,7.43
2018-07-30T13:13:14.348Z,7.20
2018-07-30T13:15:43.311Z,7.33
2018-07-30T13:18:12.876Z,7.30
2018-07-30T13:20:41.796Z,6.77
2018-07-30T13:23:10.712Z,6.23
2018-07-30T13:25:40.019Z,6.47
2018-07-30T13:28:09.030Z,7.00
2018-07-30T13:30:38.083Z,7.73
2018-07-30T13:33:07.142Z,6.93
2018-07-30T13:35:36.233Z,7.70
2018-07-30T13:38:06.019Z,7.20
2018-07-30T13:40:35.092Z,7.40
2018-07-30T13:43:04.064Z,7.70
2018-07-30T13:45:32.814Z,6.87
2018-07-30T13:48:01.824Z,7.40
2018-07-30T13:50:31.012Z,6.60
2018-07-30T13:52:59.876Z,6.30
2018-07-30T13:55:28.833Z,6.83
2018-07-30T13:57:57.723Z,7.13
2018-07-30T14:00:26.665Z,6.83
2018-07-30T14:02:55.426Z,6.80
2018-07-30T14:05:24.445Z,6.67
2018-07-30T14:07:53.348Z,6.33
2018-07-30T14:10:22.438Z,6.33
2018-07-30T14:12:51.514Z,6.97
2018-07-30T14:15:20.469Z,7.17
2018-07-30T14:17:49.420Z,7.77
2018-07-30T14:20:18.556Z,7.77
2018-07-30T14:22:47.692Z,6.43
2018-07-30T14:25:16.695Z,7.03
2018-07-30T14:27:45.886Z,7.10
2018-07-30T14:30:14.945Z,6.60
2018-07-30T14:32:44.495Z,7.33
2018-07-30T14:35:13.462Z,6.67
2018-07-30T14:37:42.497Z,6.07
2018-07-30T14:40:14.785Z,7.10
2018-07-30T14:42:43.938Z,6.33
2018-07-30T14:45:13.241Z,6.60
2018-07-30T14:47:42.126Z,7.40
2018-07-30T14:50:11.352Z,6.70
2018-07-30T14:52:40.422Z,6.93
2018-07-30T14:55:09.523Z,7.87
2018-07-30T14:57:38.710Z,7.50
2018-07-30T15:00:09.073Z,7.00
2018-07-30T15:02:38.254Z,7.50
2018-07-30T15:05:07.107Z,7.10
2018-07-30T15:07:36.124Z,7.13
2018-07-30T15:10:05.448Z,7.27
2018-07-30T15:12:34.522Z,6.77
2018-07-30T15:15:03.692Z,7.33
2018-07-30T15:17:33.887Z,7.00
2018-07-30T15:20:02.753Z,6.23
2018-07-30T15:22:31.844Z,7.03
2018-07-30T15:25:00.687Z,7.20
2018-07-30T15:27:29.811Z,6.97
2018-07-30T15:29:58.869Z,7.50
2018-07-30T15:32:28.563Z,6.50
2018-07-30T15:34:57.740Z,7.10
2018-07-30T15:37:26.808Z,5.97
2018-07-30T15:39:55.818Z,6.50
2018-07-30T15:42:24.806Z,7.17
2018-07-30T15:44:53.851Z,6.77
2018-07-30T15:47:22.897Z,6.87
2018-07-30T15:49:53.869Z,6.20
2018-07-30T15:52:23.184Z,6.90
2018-07-30T15:54:52.422Z,5.83
2018-07-30T15:57:21.436Z,6.90
2018-07-30T15:59:50.527Z,6.83
2018-07-30T16:02:19.441Z,5.83
2018-07-30T16:04:48.287Z,6.20
2018-07-30T16:07:18.308Z,6.23
2018-07-30T16:09:47.134Z,6.27
2018-07-30T16:12:16.280Z,6.00
2018-07-30T16:14:45.418Z,6.53
2018-07-30T16:17:14.610Z,6.20
2018-07-30T16:19:43.584Z,6.17
2018-07-30T16:22:12.439Z,7.03
2018-07-30T16:24:41.421Z,6.13
2018-07-30T16:27:10.362Z,6.43
2018-07-30T16:29:39.256Z,6.90
2018-07-30T16:32:08.716Z,5.63
2018-07-30T16:34:37.712Z,6.40
2018-07-30T16:37:06.793Z,6.43
2018-07-30T16:39:35.959Z,5.43
2018-07-30T16:42:04.903Z,6.23
2018-07-30T16:44:33.878Z,5.60
2018-07-30T16:47:02.904Z,5.40
2018-07-30T16:49:31.894Z,6.30
2018-07-30T16:52:00.884Z,6.00
2018-07-30T16:54:30.053Z,5.10
2018-07-30T16:56:58.998Z,5.77
2018-07-30T16:59:28.020Z,5.90
2018-07-30T17:01:57.169Z,5.80
2018-07-30T17:04:25.943Z,6.20
2018-07-30T17:06:55.178Z,5.17
2018-07-30T17:09:24.119Z,5.63
2018-07-30T17:11:53.134Z,6.17
2018-07-30T17:14:22.109Z,6.40
2018-07-30T17:16:51.376Z,5.97
2018-07-30T17:19:21.276Z,5.90
2018-07-30T17:21:50.164Z,5.93
2018-07-30T17:24:19.138Z,5.93
2018-07-30T17:26:48.071Z,5.20
2018-07-30T17:29:17.062Z,5.30
2018-07-30T17:31:47.151Z,5.60
2018-07-30T17:34:16.053Z,5.67
2018-07-30T17:36:45.024Z,5.40
2018-07-30T17:39:14.333Z,5.37
2018-07-30T17:41:43.392Z,6.17
2018-07-30T17:44:12.634Z,5.80
2018-07-30T17:46:41.460Z,6.30
2018-07-30T17:49:10.465Z,4.80
2018-07-30T17:51:39.517Z,5.37
2018-07-30T17:54:08.662Z,5.40
2018-07-30T17:56:38.889Z,4.73
2018-07-30T17:59:07.840Z,5.23
2018-07-30T18:01:38.788Z,5.93
2018-07-30T18:04:07.707Z,5.40
2018-07-30T18:06:36.705Z,5.63
2018-07-30T18:09:07.684Z,5.47
2018-07-30T18:14:05.830Z,6.20
2018-07-30T18:16:34.551Z,7.47
2018-07-30T18:19:03.292Z,6.63
2018-07-30T18:21:32.309Z,7.27
2018-07-30T18:24:01.108Z,6.60
2018-07-30T18:26:29.888Z,6.40
2018-07-30T18:28:58.788Z,7.17
2018-07-30T18:31:28.715Z,6.23
2018-07-30T18:33:57.678Z,6.23
2018-07-30T18:36:26.431Z,6.87
2018-07-30T18:38:55.200Z,8.30
2018-07-30T18:41:24.447Z,7.60
2018-07-30T18:43:53.229Z,7.43
2018-07-30T18:46:22.181Z,7.60
2018-07-30T18:48:50.974Z,7.93
2018-07-30T18:51:19.838Z,8.67
2018-07-30T18:53:48.577Z,8.50
2018-07-30T18:56:17.379Z,7.87
2018-07-30T18:58:47.097Z,8.23
2018-07-30T19:01:15.947Z,8.27
2018-07-30T19:03:44.801Z,8.30
2018-07-30T19:06:13.720Z,9.20
2018-07-30T19:08:42.601Z,8.73
2018-07-30T19:11:11.567Z,9.70
2018-07-30T19:13:40.309Z,10.50
2018-07-30T19:16:09.190Z,10.83
2018-07-30T19:18:38.021Z,10.60
2018-07-30T19:21:06.888Z,10.77
2018-07-30T19:23:35.776Z,14.20
2018-07-30T19:26:06.459Z,13.20
2018-07-30T19:28:39.502Z,13.30
2018-07-30T19:31:09.677Z,13.57
2018-07-30T19:33:38.493Z,12.43
2018-07-30T19:36:07.445Z,12.90
2018-07-30T19:38:36.469Z,13.13
2018-07-30T19:41:05.564Z,13.80
2018-07-30T19:43:34.440Z,12.23
2018-07-30T19:46:03.269Z,12.73
2018-07-30T19:48:32.185Z,14.40
2018-07-30T19:51:01.882Z,14.23
2018-07-30T19:53:30.710Z,13.37
2018-07-30T19:55:59.544Z,15.43
2018-07-30T19:58:29.515Z,14.27
2018-07-30T20:00:57.868Z,13.60
2018-07-30T20:03:26.715Z,15.67
2018-07-30T20:05:55.607Z,15.37
2018-07-30T20:08:24.492Z,15.20
2018-07-30T20:10:54.295Z,13.50
2018-07-30T20:13:23.228Z,15.17
2018-07-30T20:15:52.161Z,14.63
2018-07-30T20:18:21.694Z,14.63
2018-07-30T20:20:50.519Z,14.90
2018-07-30T20:23:19.368Z,15.73
2018-07-30T20:25:48.189Z,16.00
2018-07-30T20:28:17.049Z,15.90
2018-07-30T20:30:45.866Z,16.77
2018-07-30T20:33:15.697Z,15.80
2018-07-30T20:35:44.411Z,17.50
2018-07-30T20:38:13.239Z,15.80
2018-07-30T20:40:42.253Z,16.13
2018-07-30T20:43:11.256Z,15.30
2018-07-30T20:45:42.163Z,15.67
2018-07-30T20:48:10.900Z,15.87
2018-07-30T20:50:39.777Z,14.80
2018-07-30T20:53:08.637Z,15.30
2018-07-30T20:55:37.433Z,14.67
2018-07-30T20:58:06.281Z,15.83
2018-07-30T21:00:35.068Z,15.93
2018-07-30T21:03:04.274Z,16.00
2018-07-30T21:05:37.396Z,15.97
2018-07-30T21:08:06.269Z,15.30
2018-07-30T21:10:34.985Z,15.43
2018-07-30T21:13:03.701Z,15.23
2018-07-30T21:15:32.639Z,15.97
2018-07-30T21:18:01.390Z,16.70
2018-07-30T21:20:30.248Z,14.93
2018-07-30T21:23:00.097Z,15.20
2018-07-30T21:25:28.989Z,14.53
2018-07-30T21:27:57.858Z,16.80
2018-07-30T21:30:26.688Z,15.13
2018-07-30T21:32:55.620Z,15.10
2018-07-30T21:35:24.414Z,14.40
2018-07-30T21:37:53.494Z,14.60
2018-07-30T21:40:22.195Z,15.33
2018-07-30T21:42:50.704Z,15.70
2018-07-30T21:45:19.542Z,14.30
2018-07-30T21:47:48.290Z,14.40
2018-07-30T21:50:17.318Z,13.10
2018-07-30T21:52:46.083Z,13.90
2018-07-30T21:55:14.945Z,14.23
2018-07-30T21:57:44.949Z,16.97
2018-07-30T22:00:22.643Z,15.30
2018-07-30T22:02:52.040Z,14.10
2018-07-30T22:05:25.523Z,14.37
2018-07-30T22:07:54.491Z,14.43
2018-07-30T22:10:25.235Z,14.17
2018-07-30T22:12:55.179Z,14.50
2018-07-30T22:15:24.499Z,14.20
2018-07-30T22:17:53.605Z,14.53
2018-07-30T22:20:22.707Z,14.13
2018-07-30T22:22:51.575Z,13.70
2018-07-30T22:25:20.372Z,13.80
2018-07-30T22:27:49.106Z,15.20
2018-07-30T22:30:18.468Z,14.60
2018-07-30T22:32:47.308Z,13.60
2018-07-30T22:35:16.036Z,14.53
2018-07-30T22:37:44.805Z,15.30
2018-07-30T22:40:13.610Z,13.93
2018-07-30T22:42:42.317Z,14.87
2018-07-30T22:45:11.114Z,15.00
2018-07-30T22:47:41.241Z,14.03
2018-07-30T22:50:10.000Z,13.40
2018-07-30T22:52:40.489Z,15.13
2018-07-30T22:55:09.287Z,15.00
2018-07-30T22:57:39.152Z,13.63
2018-07-30T23:00:08.361Z,13.50
2018-07-30T23:02:37.175Z,13.33
2018-07-30T23:05:06.633Z,12.33
2018-07-30T23:07:35.451Z,13.17
2018-07-30T23:10:04.872Z,12.33
2018-07-30T23:12:33.745Z,11.37
2018-07-30T23:15:02.418Z,11.20
2018-07-30T23:17:31.238Z,11.60
2018-07-30T23:20:00.146Z,11.17
2018-07-30T23:22:29.092Z,10.47
2018-07-30T23:24:57.945Z,11.00
2018-07-30T23:27:26.711Z,11.40
2018-07-30T23:29:55.495Z,12.20
2018-07-30T23:32:24.303Z,11.07
2018-07-30T23:34:53.455Z,12.80
2018-07-30T23:37:22.328Z,11.17
2018-07-30T23:39:50.990Z,12.50
2018-07-30T23:42:19.869Z,11.30
2018-07-30T23:44:48.313Z,11.30
2018-07-30T23:47:17.061Z,12.60
2018-07-30T23:49:45.781Z,12.23
2018-07-30T23:52:14.610Z,11.90
2018-07-30T23:54:43.381Z,12.13
2018-07-30T23:57:12.196Z,12.70
2018-07-30T23:59:41.052Z,11.80
